Saturday, November 18, 2017, 6:16 PM EST
Back to Local

KLEB, Lebanon Municipal Airport

Location: Lebanon, NH, United States Lat: 43.633
Local Time: 6:16 PM EST (23:16 GMT) Lon: -72.3
Time Zone: US/Eastern Elev: 597 ft

Show me the last for .
Show Decoded

2017-11-18 17:53 METAR KLEB 182253Z 00000KT 10SM OVC033 02/M04 A2962 RMK AO2 SLP040 T00171044 =
2017-11-18 16:53 METAR KLEB 182153Z 00000KT 10SM OVC035 01/M06 A2963 RMK AO2 SLP045 T00111056 =
2017-11-18 15:53 METAR KLEB 182053Z 06003KT 10SM BKN050 OVC060 01/M06 A2965 RMK AO2 SLP052
                 T00111056 56034 =
2017-11-18 14:53 METAR KLEB 181953Z 00000KT 10SM OVC090 01/M07 A2969 RMK AO2 SLP064 T00061067 =
2017-11-18 13:53 METAR KLEB 181853Z 00000KT 10SM OVC100 00/M07 A2971 RMK AO2 SLP072 T00001067 =
2017-11-18 12:53 METAR KLEB 181753Z 00000KT 10SM OVC100 00/M07 A2976 RMK AO2 SLP087 T00001067
                 10000 21067 56040 =
2017-11-18 11:53 METAR KLEB 181653Z 00000KT 10SM CLR M01/M07 A2979 RMK AO2 SLP098 T10111072 =
2017-11-18 10:53 METAR KLEB 181553Z 00000KT 10SM CLR M02/M08 A2983 RMK AO2 SLP113 T10221078 =
2017-11-18 09:53 METAR KLEB 181453Z 00000KT 10SM CLR M02/M07 A2988 RMK AO2 SLP128 T10221072 58025
                 =
2017-11-18 08:53 METAR KLEB 181353Z 00000KT 10SM CLR M04/M07 A2991 RMK AO2 SLP142 T10391072 =
2017-11-18 07:53 METAR KLEB 181253Z 18005KT 10SM CLR M05/M07 A2994 RMK AO2 SLP152 T10501072 =
2017-11-18 06:53 METAR KLEB 181153Z 00000KT 10SM OVC110 M07/M08 A2995 RMK AO2 SLP155 I1000 I6000
                 T10671083 11056 21083 56012 =
2017-11-18 05:53 METAR KLEB 181053Z 00000KT 10SM CLR M08/M10 A2995 RMK AO2 SLP156 I1000 T10831100
                 =
2017-11-18 04:53 METAR KLEB 180953Z AUTO 00000KT 10SM CLR M07/M09 A2997 RMK AO2 SLP160 I1000
                 T10721089 =
2017-11-18 03:53 METAR KLEB 180853Z AUTO 36003KT 10SM CLR M07/M08 A2999 RMK AO2 SLP165 T10671083
                 56008 =
2017-11-18 02:53 METAR KLEB 180753Z AUTO 16003KT 10SM CLR M07/M08 A2999 RMK AO2 SLP166 T10721083
                 =
2017-11-18 01:53 METAR KLEB 180653Z AUTO 02003KT 10SM CLR M06/M08 A2999 RMK AO2 SLP165 T10611083
                 =
2017-11-18 00:53 METAR KLEB 180553Z AUTO 00000KT 10SM CLR M07/M09 A3001 RMK AO2 SLP174 T10671089
                 11022 21067 53003 =
2017-11-17 23:53 METAR KLEB 180453Z AUTO 00000KT 10SM CLR M06/M08 A3001 RMK AO2 SLP173 T10611083
                 400441067 =
2017-11-17 22:53 METAR KLEB 180353Z AUTO 00000KT 10SM CLR M06/M08 A3000 RMK AO2 SLP169 T10611083
                 =
2017-11-17 21:53 METAR KLEB 180253Z 00000KT 10SM CLR M06/M08 A3000 RMK AO2 SLP171 T10561083 58005
                 =
2017-11-17 20:53 METAR KLEB 180153Z 00000KT 10SM CLR M04/M08 A3001 RMK AO2 SLP172 T10391083 =
2017-11-17 19:53 METAR KLEB 180053Z 00000KT 10SM CLR M04/M08 A3002 RMK AO2 SLP174 T10391083 =
2017-11-17 18:53 METAR KLEB 172353Z 35005KT 10SM CLR M02/M08 A3002 RMK AO2 SLP174 T10221078 10028
                 21028 53015 =

Support USWX by starting your Amazon purchase here.